Time;durP1;ratioP1;P1;durP2;ratioP2;P2;SDS_P1;SDS_P2;PMS_P1;PMS_P2;Temp;Humidity;BMP_temperature;BMP_pressure;BME280_temperature;BME280_humidity;BME280_pressure;Samples;Min_cycle;Max_cycle;Signal;HPM_P1;HPM_P2
2021/07/07 00:00:12;;;;;;;16.00;14.30;;;615.30;1971.20;;;;;;5034067;28;20061;-74
2021/07/07 00:02:38;;;;;;;17.00;15.27;;;615.30;1996.80;;;;;;5034849;28;20369;-74
2021/07/07 00:05:06;;;;;;;17.25;15.45;;;615.20;1971.20;;;;;;5034798;28;20159;-75
2021/07/07 00:07:32;;;;;;;16.65;14.93;;;615.20;1971.20;;;;;;5035064;28;20095;-73
2021/07/07 00:09:57;;;;;;;18.58;15.65;;;615.10;1971.20;;;;;;5033882;28;20053;-73
2021/07/07 00:12:23;;;;;;;18.60;16.42;;;615.10;1996.80;;;;;;5034039;28;20378;-74
2021/07/07 00:14:49;;;;;;;16.20;14.50;;;615.00;1945.60;;;;;;5033544;28;20029;-74
2021/07/07 00:17:15;;;;;;;17.63;15.75;;;614.90;2022.40;;;;;;5033911;28;20033;-74
2021/07/07 00:19:40;;;;;;;19.77;15.98;;;614.90;2022.40;;;;;;5034203;28;20045;-74
2021/07/07 00:22:06;;;;;;;18.15;14.95;;;614.90;2022.40;;;;;;5034141;28;20022;-74
2021/07/07 00:24:32;;;;;;;18.17;15.00;;;614.90;2022.40;;;;;;5034205;28;20022;-74
2021/07/07 00:26:58;;;;;;;20.83;16.20;;;614.90;2022.40;;;;;;5034027;28;20022;-74
2021/07/07 00:29:24;;;;;;;17.38;15.77;;;614.90;2048.00;;;;;;5033913;28;20042;-74
2021/07/07 00:31:50;;;;;;;19.70;17.05;;;615.00;2048.00;;;;;;5034029;28;20034;-74
2021/07/07 00:34:15;;;;;;;16.98;15.25;;;615.00;2048.00;;;;;;5033566;28;20018;-74
2021/07/07 00:36:41;;;;;;;17.08;15.27;;;614.90;2048.00;;;;;;5033430;28;20547;-74
2021/07/07 00:39:07;;;;;;;17.35;15.07;;;614.90;2073.60;;;;;;5033461;28;20581;-74
2021/07/07 00:41:33;;;;;;;21.92;16.70;;;614.80;2073.60;;;;;;5033733;28;20029;-74
2021/07/07 00:43:58;;;;;;;17.15;15.45;;;614.80;2048.00;;;;;;5015972;28;20029;-74
2021/07/07 00:46:24;;;;;;;20.05;15.82;;;614.80;2073.60;;;;;;5033420;28;20492;-74
2021/07/07 00:48:50;;;;;;;18.52;15.50;;;614.80;2048.00;;;;;;5033319;28;20045;-73
2021/07/07 00:51:16;;;;;;;18.65;15.90;;;614.70;2048.00;;;;;;5033492;28;20104;-75
2021/07/07 00:53:43;;;;;;;21.83;15.70;;;614.60;2048.00;;;;;;5033523;28;20061;-72
2021/07/07 00:56:12;;;;;;;16.58;14.95;;;614.60;2099.20;;;;;;5033261;28;20036;-72
2021/07/07 00:58:38;;;;;;;17.25;15.43;;;614.50;2099.20;;;;;;5033427;28;20041;-73
2021/07/07 01:01:08;;;;;;;16.95;15.25;;;614.50;2099.20;;;;;;5033383;28;20034;-73
2021/07/07 01:03:34;;;;;;;16.70;15.00;;;614.50;2099.20;;;;;;5033250;28;20030;-73
2021/07/07 01:06:00;;;;;;;19.48;15.43;;;614.50;2099.20;;;;;;5015701;28;20108;-73
2021/07/07 01:08:26;;;;;;;17.85;15.95;;;614.50;2099.20;;;;;;5033204;28;20484;-74
2021/07/07 01:10:55;;;;;;;18.90;15.82;;;614.40;2099.20;;;;;;5033270;28;20124;-73
2021/07/07 01:13:20;;;;;;;17.60;15.88;;;614.40;2099.20;;;;;;5033132;28;20109;-73
2021/07/07 01:15:47;;;;;;;18.70;16.85;;;614.40;2124.80;;;;;;5032683;28;20045;-73
2021/07/07 01:18:13;;;;;;;20.17;16.63;;;614.40;2124.80;;;;;;5033205;28;20029;-74
2021/07/07 01:20:40;;;;;;;18.13;16.20;;;614.40;2124.80;;;;;;5033035;28;20355;-74
2021/07/07 01:23:06;;;;;;;19.20;16.52;;;589.70;2124.80;;;;;;5033191;28;20494;-75
2021/07/07 01:25:34;;;;;;;20.77;16.98;;;589.60;2124.80;;;;;;5033591;28;20077;-73
2021/07/07 01:28:05;;;;;;;19.75;15.45;;;589.70;2124.80;;;;;;5033132;28;20382;-73
2021/07/07 01:30:31;;;;;;;21.58;15.68;;;589.70;2124.80;;;;;;5032835;28;20072;-73
2021/07/07 01:32:57;;;;;;;18.50;16.52;;;589.70;2124.80;;;;;;5034815;28;20017;-74
2021/07/07 01:35:24;;;;;;;22.77;17.80;;;589.70;2124.80;;;;;;5036907;28;20115;-74
2021/07/07 01:37:52;;;;;;;17.52;15.82;;;589.70;2150.40;;;;;;5036664;28;20421;-72
2021/07/07 01:40:23;;;;;;;18.30;16.50;;;589.60;2150.40;;;;;;5037014;28;20040;-71
2021/07/07 01:42:49;;;;;;;22.08;17.73;;;589.60;2150.40;;;;;;5036737;28;20385;-76
2021/07/07 01:45:16;;;;;;;19.55;17.63;;;589.60;2150.40;;;;;;5036579;28;20024;-74
2021/07/07 01:47:42;;;;;;;22.25;17.05;;;589.60;2150.40;;;;;;5036951;28;20075;-73
2021/07/07 01:50:11;;;;;;;18.38;16.45;;;589.60;2150.40;;;;;;5037491;28;20442;-74
2021/07/07 01:52:37;;;;;;;17.92;16.10;;;589.50;2124.80;;;;;;5036447;28;20117;-74
2021/07/07 01:55:08;;;;;;;18.38;16.30;;;589.40;2150.40;;;;;;5036603;28;20026;-74
2021/07/07 01:57:49;;;;;;;18.55;16.75;;;589.30;2150.40;;;;;;5036348;28;20029;-74
2021/07/07 02:00:33;;;;;;;19.08;17.17;;;589.30;2124.80;;;;;;5036743;28;20495;-75
2021/07/07 02:03:00;;;;;;;20.08;16.63;;;589.20;2150.40;;;;;;5019031;28;20469;-73
2021/07/07 02:05:32;;;;;;;20.13;17.23;;;589.20;2150.40;;;;;;5036624;28;20029;-73
2021/07/07 02:08:00;;;;;;;19.23;16.73;;;589.20;2099.20;;;;;;5036989;28;20044;-72
2021/07/07 02:10:27;;;;;;;17.50;15.70;;;589.20;2099.20;;;;;;5036367;28;20270;-73
2021/07/07 02:12:53;;;;;;;18.83;16.83;;;589.20;2099.20;;;;;;5036451;28;20045;-73
2021/07/07 02:15:25;;;;;;;20.42;17.30;;;589.20;2124.80;;;;;;5036314;28;20025;-73
2021/07/07 02:17:52;;;;;;;18.88;16.40;;;589.20;2124.80;;;;;;5035932;28;20029;-74
2021/07/07 02:20:19;;;;;;;17.85;16.02;;;589.20;2124.80;;;;;;5001917;28;20076;-74
2021/07/07 02:22:46;;;;;;;18.38;16.35;;;589.10;2124.80;;;;;;5036308;28;20485;-74
2021/07/07 02:25:15;;;;;;;20.48;18.20;;;589.10;2124.80;;;;;;5036466;28;20033;-75
2021/07/07 02:27:41;;;;;;;18.90;16.50;;;589.10;2124.80;;;;;;5036799;28;20061;-74
2021/07/07 02:30:10;;;;;;;24.60;18.13;;;589.00;2150.40;;;;;;5036191;28;20026;-73
2021/07/07 02:32:36;;;;;;;19.50;17.27;;;589.10;2150.40;;;;;;5036103;28;20477;-74
2021/07/07 02:35:07;;;;;;;19.30;16.23;;;589.10;2150.40;;;;;;5036258;28;20492;-73
2021/07/07 02:37:34;;;;;;;20.05;17.88;;;589.10;2150.40;;;;;;5036371;28;20051;-74
2021/07/07 02:40:01;;;;;;;19.85;17.13;;;589.10;2150.40;;;;;;5036107;28;20092;-73
2021/07/07 02:42:26;;;;;;;20.42;15.55;;;589.10;2150.40;;;;;;5018172;28;20022;-74
2021/07/07 02:44:52;;;;;;;22.08;16.08;;;589.10;2150.40;;;;;;5035867;28;20025;-75
2021/07/07 02:47:18;;;;;;;19.05;17.02;;;589.10;2176.00;;;;;;5036302;28;20381;-75
2021/07/07 02:49:43;;;;;;;19.42;17.42;;;589.10;2150.40;;;;;;5036088;28;20553;-73
2021/07/07 02:52:09;;;;;;;22.52;17.30;;;589.10;2150.40;;;;;;5036439;28;20453;-72
2021/07/07 02:54:35;;;;;;;20.15;16.40;;;589.10;2150.40;;;;;;5036061;28;20032;-74
2021/07/07 02:57:01;;;;;;;19.70;16.88;;;589.10;2150.40;;;;;;5035843;28;20032;-73
2021/07/07 02:59:28;;;;;;;23.25;17.95;;;589.10;2150.40;;;;;;5035858;28;20059;-74
2021/07/07 03:01:54;;;;;;;19.55;17.20;;;589.10;2150.40;;;;;;5035744;28;20037;-75
2021/07/07 03:04:19;;;;;;;20.17;16.88;;;589.00;2150.40;;;;;;5035512;28;20018;-73
2021/07/07 03:06:45;;;;;;;18.92;17.02;;;589.00;2150.40;;;;;;5035887;28;20137;-75
2021/07/07 03:09:11;;;;;;;20.10;18.00;;;589.00;2150.40;;;;;;5035905;28;20540;-74
2021/07/07 03:11:38;;;;;;;19.50;17.40;;;588.90;2150.40;;;;;;5036046;28;20026;-74
2021/07/07 03:14:04;;;;;;;18.77;16.75;;;588.90;2150.40;;;;;;5035660;28;20029;-73
2021/07/07 03:16:30;;;;;;;18.58;16.75;;;588.90;2150.40;;;;;;5037506;28;20021;-73
2021/07/07 03:18:56;;;;;;;19.35;17.42;;;588.90;2150.40;;;;;;5038165;28;20064;-75
2021/07/07 03:21:22;;;;;;;23.20;17.08;;;588.90;2150.40;;;;;;5037963;28;20021;-74
2021/07/07 03:23:48;;;;;;;18.70;16.70;;;588.80;2150.40;;;;;;5040766;28;20051;-74
2021/07/07 03:26:14;;;;;;;19.08;17.08;;;588.90;2150.40;;;;;;5038543;28;20046;-74
2021/07/07 03:28:40;;;;;;;20.67;16.77;;;588.80;2150.40;;;;;;5041877;28;20022;-74
2021/07/07 03:31:07;;;;;;;20.58;17.83;;;588.80;2150.40;;;;;;5041881;28;20026;-73
2021/07/07 03:33:32;;;;;;;23.10;18.70;;;564.10;2150.40;;;;;;5040674;28;20021;-73
2021/07/07 03:36:01;;;;;;;22.08;18.65;;;564.10;2150.40;;;;;;5039661;28;20163;-74
2021/07/07 03:38:27;;;;;;;19.15;16.77;;;564.10;2150.40;;;;;;5040301;28;20060;-72
2021/07/07 03:40:53;;;;;;;18.67;16.67;;;564.10;2150.40;;;;;;5047507;28;20021;-74
2021/07/07 03:43:19;;;;;;;19.98;17.85;;;564.10;2150.40;;;;;;5037621;28;20034;-74
2021/07/07 03:45:45;;;;;;;24.80;16.77;;;564.10;2176.00;;;;;;5055563;28;20039;-75
2021/07/07 03:48:10;;;;;;;22.90;16.45;;;564.10;2201.60;;;;;;5051693;28;20068;-75
2021/07/07 03:50:37;;;;;;;22.10;17.85;;;564.10;2201.60;;;;;;5051553;28;20042;-73
2021/07/07 03:53:06;;;;;;;17.95;15.75;;;564.00;2201.60;;;;;;5043941;28;20022;-75
2021/07/07 03:55:33;;;;;;;20.27;16.77;;;563.90;2201.60;;;;;;5038721;28;20137;-75
2021/07/07 03:58:00;;;;;;;18.15;16.00;;;563.90;2201.60;;;;;;5044176;28;20072;-79
2021/07/07 04:00:27;;;;;;;19.20;16.83;;;563.80;2176.00;;;;;;5051565;28;20025;-74
2021/07/07 04:02:55;;;;;;;20.20;17.50;;;563.80;2227.20;;;;;;5051414;28;20560;-74
2021/07/07 04:05:21;;;;;;;19.92;16.75;;;563.80;2227.20;;;;;;5039882;28;20032;-76
2021/07/07 04:07:47;;;;;;;18.65;16.35;;;563.80;2227.20;;;;;;5043403;28;20477;-73
2021/07/07 04:10:14;;;;;;;26.42;18.27;;;563.90;2227.20;;;;;;5026738;28;20021;-75
2021/07/07 04:12:42;;;;;;;22.30;18.02;;;563.80;2227.20;;;;;;5042531;28;20013;-77
2021/07/07 04:15:09;;;;;;;34.25;17.33;;;563.90;2227.20;;;;;;5044327;28;20097;-74
2021/07/07 04:17:35;;;;;;;23.08;16.00;;;563.90;2227.20;;;;;;5045332;28;20037;-74
2021/07/07 04:20:06;;;;;;;20.08;17.90;;;563.90;2227.20;;;;;;5047306;28;20044;-74
2021/07/07 04:22:32;;;;;;;23.55;16.50;;;563.90;2227.20;;;;;;5043252;28;20393;-74
2021/07/07 04:24:58;;;;;;;20.33;17.73;;;564.00;2227.20;;;;;;5039213;28;20083;-73
2021/07/07 04:27:23;;;;;;;34.92;19.50;;;564.10;2201.60;;;;;;5036710;28;20505;-73
2021/07/07 04:29:52;;;;;;;20.15;17.35;;;564.10;2227.20;;;;;;5037361;28;20381;-74
2021/07/07 04:32:19;;;;;;;21.83;19.25;;;564.10;2252.80;;;;;;5034627;28;20029;-73
2021/07/07 04:34:48;;;;;;;25.17;18.95;;;588.80;2252.80;;;;;;5034011;28;20048;-73
2021/07/07 04:37:14;;;;;;;26.38;18.50;;;588.80;2252.80;;;;;;5033661;28;20036;-73
2021/07/07 04:39:41;;;;;;;21.40;17.27;;;588.80;2252.80;;;;;;5034027;28;20025;-73
2021/07/07 04:42:07;;;;;;;22.50;20.10;;;588.80;2227.20;;;;;;5033605;28;20025;-73
2021/07/07 04:44:32;;;;;;;19.73;17.38;;;588.80;2227.20;;;;;;5033728;28;20079;-74
2021/07/07 04:46:59;;;;;;;21.52;17.90;;;588.80;2252.80;;;;;;5033754;28;20376;-73
2021/07/07 04:49:25;;;;;;;25.58;17.88;;;588.90;2252.80;;;;;;5033575;28;20104;-75
2021/07/07 04:51:51;;;;;;;25.13;19.58;;;588.90;2252.80;;;;;;5033801;28;20021;-73
2021/07/07 04:54:17;;;;;;;22.20;17.35;;;588.90;2227.20;;;;;;5033878;28;20033;-74
2021/07/07 04:56:44;;;;;;;20.00;17.88;;;588.90;2227.20;;;;;;5033758;28;20056;-74
2021/07/07 04:59:10;;;;;;;19.67;17.58;;;589.00;2227.20;;;;;;5033142;28;20033;-74
2021/07/07 05:01:38;;;;;;;19.17;16.55;;;589.10;2227.20;;;;;;5033466;28;20018;-74
2021/07/07 05:04:05;;;;;;;21.42;16.55;;;589.10;2201.60;;;;;;5033492;28;20141;-73
2021/07/07 05:06:31;;;;;;;18.88;16.63;;;589.20;2227.20;;;;;;5034557;28;20363;-74
2021/07/07 05:08:57;;;;;;;21.08;17.30;;;589.20;2227.20;;;;;;5037303;28;20030;-73
2021/07/07 05:11:23;;;;;;;20.02;17.98;;;589.20;2176.00;;;;;;5037374;28;20025;-73
2021/07/07 05:13:48;;;;;;;23.48;19.02;;;589.30;2176.00;;;;;;5037567;28;20079;-74
2021/07/07 05:16:14;;;;;;;21.27;17.33;;;589.40;2150.40;;;;;;5037253;28;20025;-74
2021/07/07 05:18:40;;;;;;;20.33;18.05;;;589.50;2150.40;;;;;;5037637;28;20037;-74
2021/07/07 05:21:06;;;;;;;25.88;17.08;;;589.60;2124.80;;;;;;5037363;28;20080;-74
2021/07/07 05:23:34;;;;;;;20.27;17.92;;;589.60;2150.40;;;;;;5037312;28;20109;-75
2021/07/07 05:26:01;;;;;;;20.85;17.48;;;614.40;2150.40;;;;;;5037200;28;20021;-72
2021/07/07 05:28:27;;;;;;;17.73;14.50;;;614.40;2150.40;;;;;;5037199;28;20022;-74
2021/07/07 05:30:53;;;;;;;19.40;16.90;;;614.60;2124.80;;;;;;5037586;28;20030;-73
2021/07/07 05:33:19;;;;;;;22.90;17.65;;;614.60;2124.80;;;;;;5036928;28;20080;-73
2021/07/07 05:35:45;;;;;;;24.42;17.45;;;614.60;2124.80;;;;;;5037006;28;20025;-74
2021/07/07 05:38:11;;;;;;;21.15;17.95;;;614.70;2124.80;;;;;;5036615;28;20072;-73
2021/07/07 05:40:36;;;;;;;25.02;19.00;;;614.80;2124.80;;;;;;5037050;28;20071;-73
2021/07/07 05:43:03;;;;;;;20.52;18.25;;;614.80;2099.20;;;;;;5036610;28;20094;-74
2021/07/07 05:45:29;;;;;;;21.13;16.73;;;614.80;2099.20;;;;;;5036865;28;20083;-73
2021/07/07 05:47:56;;;;;;;25.33;16.85;;;614.90;2099.20;;;;;;5038830;28;20106;-73
2021/07/07 05:50:22;;;;;;;18.10;15.65;;;614.90;2124.80;;;;;;5038186;28;20493;-74
2021/07/07 05:52:48;;;;;;;19.20;15.70;;;614.90;2073.60;;;;;;5036567;28;20112;-73
2021/07/07 05:55:15;;;;;;;22.75;16.90;;;615.10;2073.60;;;;;;5036382;28;20036;-73
2021/07/07 05:57:40;;;;;;;20.65;16.27;;;615.20;2048.00;;;;;;5036490;28;20108;-73
2021/07/07 06:00:15;;;;;;;17.58;15.88;;;615.30;2073.60;;;;;;5036788;28;20032;-75
2021/07/07 06:02:43;;;;;;;19.48;14.85;;;615.30;2073.60;;;;;;5036646;28;20033;-73
2021/07/07 06:05:11;;;;;;;18.08;14.65;;;615.30;2048.00;;;;;;5036437;28;20026;-74
2021/07/07 06:07:39;;;;;;;17.27;15.48;;;640.00;2048.00;;;;;;5036328;28;20044;-74
2021/07/07 06:10:06;;;;;;;17.25;15.27;;;640.00;2022.40;;;;;;5036279;28;20022;-74
2021/07/07 06:12:32;;;;;;;19.42;15.93;;;640.10;2048.00;;;;;;5036330;28;20021;-74
2021/07/07 06:14:58;;;;;;;19.65;15.10;;;640.10;2048.00;;;;;;5038222;28;20032;-74
2021/07/07 06:17:24;;;;;;;17.10;14.98;;;640.20;2022.40;;;;;;5036821;28;20409;-73
2021/07/07 06:19:49;;;;;;;20.05;15.15;;;640.30;1996.80;;;;;;5019524;28;20025;-74
2021/07/07 06:22:15;;;;;;;18.15;15.77;;;640.40;2022.40;;;;;;5036119;28;20061;-75
2021/07/07 06:24:41;;;;;;;18.08;13.63;;;640.40;2048.00;;;;;;5036302;28;20033;-74
2021/07/07 06:27:07;;;;;;;16.17;14.45;;;640.50;1996.80;;;;;;5035809;28;20075;-74
2021/07/07 06:29:33;;;;;;;20.17;15.48;;;640.60;1971.20;;;;;;5035911;28;20044;-72
2021/07/07 06:31:59;;;;;;;20.17;16.73;;;640.70;1971.20;;;;;;5035803;28;20037;-73
2021/07/07 06:34:24;;;;;;;26.20;20.05;;;640.90;1971.20;;;;;;5035489;28;20036;-73
2021/07/07 06:36:50;;;;;;;24.08;16.35;;;640.90;1920.00;;;;;;5035939;28;20037;-74
2021/07/07 06:39:16;;;;;;;22.95;15.60;;;665.60;1945.60;;;;;;5036246;28;20128;-76
2021/07/07 06:41:41;;;;;;;22.13;17.73;;;665.60;1945.60;;;;;;5036315;28;20474;-73
2021/07/07 06:44:08;;;;;;;21.55;18.10;;;665.70;1920.00;;;;;;5035752;28;20037;-74
2021/07/07 06:46:35;;;;;;;19.10;17.02;;;665.80;1920.00;;;;;;5035795;28;20099;-74
2021/07/07 06:49:02;;;;;;;27.98;20.55;;;665.90;1894.40;;;;;;5035767;28;20128;-73
2021/07/07 06:51:28;;;;;;;21.63;17.38;;;666.00;1920.00;;;;;;5035526;28;20432;-74
2021/07/07 06:53:54;;;;;;;20.95;17.83;;;666.10;1894.40;;;;;;5035766;28;20028;-73
2021/07/07 06:56:20;;;;;;;21.50;17.13;;;666.10;1894.40;;;;;;5035349;28;20096;-72
2021/07/07 06:58:46;;;;;;;28.17;19.10;;;666.20;1868.80;;;;;;5034882;28;20040;-74
2021/07/07 07:01:11;;;;;;;17.33;15.48;;;666.30;1868.80;;;;;;5035626;28;20026;-73
2021/07/07 07:03:37;;;;;;;20.58;16.88;;;666.40;1894.40;;;;;;5035351;28;20026;-74
2021/07/07 07:06:03;;;;;;;17.80;15.90;;;666.50;1894.40;;;;;;5035150;28;20545;-74
2021/07/07 07:08:29;;;;;;;22.55;16.40;;;691.30;1817.60;;;;;;5035077;28;20075;-74
2021/07/07 07:10:55;;;;;;;19.80;16.98;;;691.40;1843.20;;;;;;5035214;28;20144;-73
2021/07/07 07:13:20;;;;;;;18.15;16.08;;;691.50;1817.60;;;;;;5035104;28;20032;-73
2021/07/07 07:15:47;;;;;;;20.17;14.25;;;691.60;1792.00;;;;;;5034903;28;20021;-72
2021/07/07 07:18:13;;;;;;;20.08;15.48;;;691.60;1792.00;;;;;;5035213;28;20029;-73
2021/07/07 07:20:39;;;;;;;17.42;14.60;;;691.70;1792.00;;;;;;5035188;28;20025;-74
2021/07/07 07:23:05;;;;;;;20.13;15.95;;;691.70;1792.00;;;;;;5034854;28;20492;-73
2021/07/07 07:25:31;;;;;;;19.55;17.52;;;691.80;1766.40;;;;;;5035064;28;20022;-73
2021/07/07 07:27:57;;;;;;;21.25;16.90;;;691.90;1740.80;;;;;;5035000;28;20048;-74
2021/07/07 07:30:23;;;;;;;17.48;15.63;;;692.00;1740.80;;;;;;5033824;28;20025;-73
2021/07/07 07:32:50;;;;;;;20.15;16.63;;;692.10;1715.20;;;;;;5034882;28;20540;-75
2021/07/07 07:35:20;;;;;;;21.10;16.48;;;716.80;1740.80;;;;;;5034350;28;20064;-73
2021/07/07 07:37:51;;;;;;;19.00;16.95;;;716.90;1740.80;;;;;;5034321;28;20065;-74
2021/07/07 07:40:25;;;;;;;19.00;15.93;;;717.00;1715.20;;;;;;5034514;28;20108;-73
2021/07/07 07:42:51;;;;;;;20.70;15.23;;;717.20;1740.80;;;;;;5034632;28;20398;-72
2021/07/07 07:45:19;;;;;;;16.27;14.52;;;717.40;1792.00;;;;;;5034163;28;20483;-73
2021/07/07 07:47:44;;;;;;;19.23;16.92;;;717.50;1740.80;;;;;;5034241;28;20053;-74
2021/07/07 07:50:13;;;;;;;17.35;14.00;;;717.60;1689.60;;;;;;5016405;28;20080;-73
2021/07/07 07:52:42;;;;;;;17.65;15.18;;;742.40;1715.20;;;;;;5034145;28;20061;-74
2021/07/07 07:55:09;;;;;;;19.70;15.68;;;742.50;1664.00;;;;;;5034189;28;20485;-74
2021/07/07 07:57:36;;;;;;;20.27;15.35;;;742.60;1664.00;;;;;;5033952;28;20427;-74
2021/07/07 08:00:14;;;;;;;15.95;13.80;;;742.80;1740.80;;;;;;5033900;28;20040;-72
2021/07/07 08:02:42;;;;;;;15.60;14.10;;;742.90;1689.60;;;;;;5017507;28;20028;-74
2021/07/07 08:05:08;;;;;;;16.00;12.02;;;743.00;1638.40;;;;;;5034067;28;20029;-74
2021/07/07 08:07:34;;;;;;;16.60;14.10;;;743.10;1612.80;;;;;;5033737;28;20041;-74
2021/07/07 08:10:00;;;;;;;16.83;14.02;;;743.30;1587.20;;;;;;5033900;28;20018;-73
2021/07/07 08:12:26;;;;;;;20.73;15.93;;;768.00;1638.40;;;;;;5033940;28;20022;-75
2021/07/07 08:14:52;;;;;;;16.77;14.23;;;768.10;1612.80;;;;;;5033668;28;20304;-74
2021/07/07 08:17:19;;;;;;;17.63;15.80;;;768.20;1587.20;;;;;;5033557;28;20381;-74
2021/07/07 08:19:46;;;;;;;20.63;14.50;;;768.40;1536.00;;;;;;5033928;28;20057;-74
2021/07/07 08:22:11;;;;;;;17.13;13.88;;;768.50;1536.00;;;;;;5033934;28;20052;-72
2021/07/07 08:24:37;;;;;;;16.42;14.55;;;768.60;1561.60;;;;;;5033865;28;20025;-74
2021/07/07 08:27:04;;;;;;;18.90;13.02;;;768.70;1561.60;;;;;;5033857;28;20022;-73
2021/07/07 08:29:30;;;;;;;16.70;14.57;;;768.90;1484.80;;;;;;5033555;28;20069;-73
2021/07/07 08:31:55;;;;;;;14.40;12.77;;;793.70;1536.00;;;;;;5033303;28;20017;-73
2021/07/07 08:34:21;;;;;;;14.18;12.77;;;793.70;1484.80;;;;;;5033821;28;20091;-74
2021/07/07 08:36:47;;;;;;;14.45;12.57;;;793.90;1484.80;;;;;;5015528;28;20478;-74
2021/07/07 08:39:13;;;;;;;17.77;15.05;;;794.00;1459.20;;;;;;5033146;28;20044;-74
2021/07/07 08:41:40;;;;;;;15.75;13.85;;;794.20;1408.00;;;;;;5033108;28;20089;-73
2021/07/07 08:44:07;;;;;;;16.73;11.65;;;794.30;1433.60;;;;;;5033444;28;20022;-74
2021/07/07 08:46:36;;;;;;;13.75;11.02;;;794.40;1459.20;;;;;;5033414;28;20175;-74
2021/07/07 08:49:04;;;;;;;14.32;12.68;;;794.50;1408.00;;;;;;5033250;28;20041;-72
2021/07/07 08:51:30;;;;;;;14.57;12.30;;;794.50;1408.00;;;;;;5033368;28;20455;-74
2021/07/07 08:53:59;;;;;;;15.55;13.50;;;819.30;1331.20;;;;;;5033347;28;20025;-74
2021/07/07 08:56:24;;;;;;;16.05;11.50;;;819.30;1331.20;;;;;;5033176;28;20033;-74
2021/07/07 08:58:51;;;;;;;12.60;11.23;;;819.30;1382.40;;;;;;5033142;28;20033;-74
2021/07/07 09:01:17;;;;;;;12.82;11.52;;;819.40;1356.80;;;;;;5033035;28;20025;-74
2021/07/07 09:03:44;;;;;;;18.65;11.82;;;819.60;1433.60;;;;;;5032884;28;20029;-74
2021/07/07 09:06:12;;;;;;;13.45;11.55;;;819.70;1356.80;;;;;;5032947;28;20359;-73
2021/07/07 09:08:44;;;;;;;13.38;10.88;;;819.80;1305.60;;;;;;5033386;28;20032;-74
2021/07/07 09:11:18;;;;;;;12.73;11.43;;;819.90;1280.00;;;;;;5033080;28;20359;-74
2021/07/07 09:13:45;;;;;;;12.23;10.93;;;820.10;1305.60;;;;;;5032930;28;20350;-74
2021/07/07 09:16:14;;;;;;;13.15;11.88;;;820.10;1356.80;;;;;;5032954;28;20386;-73
2021/07/07 09:18:40;;;;;;;12.15;11.02;;;844.90;1408.00;;;;;;5032906;28;20124;-74
2021/07/07 09:21:27;;;;;;;14.27;10.77;;;845.10;1356.80;;;;;;5032954;28;20033;-75
2021/07/07 09:23:58;;;;;;;16.02;14.38;;;845.20;1305.60;;;;;;5032975;28;20061;-74
2021/07/07 09:26:32;;;;;;;14.25;11.70;;;845.30;1305.60;;;;;;5032863;28;20112;-75
2021/07/07 09:28:59;;;;;;;15.65;14.05;;;845.30;1331.20;;;;;;5032605;28;20044;-73
2021/07/07 09:31:37;;;;;;;12.55;11.32;;;845.40;1356.80;;;;;;5032724;28;20033;-74
2021/07/07 09:34:16;;;;;;;16.20;14.60;;;845.40;1280.00;;;;;;5033277;28;20105;-75
2021/07/07 09:36:45;;;;;;;12.90;11.55;;;845.40;1280.00;;;;;;5033074;28;20026;-74
2021/07/07 09:39:11;;;;;;;12.15;10.95;;;845.60;1254.40;;;;;;5032761;28;20482;-73
2021/07/07 09:41:39;;;;;;;13.57;12.30;;;845.70;1254.40;;;;;;5032800;28;20159;-75
2021/07/07 09:44:06;;;;;;;12.82;11.10;;;870.40;1254.40;;;;;;5032832;28;20037;-73
2021/07/07 09:46:34;;;;;;;13.13;11.02;;;870.50;1305.60;;;;;;5032772;28;20029;-74
2021/07/07 09:49:02;;;;;;;12.00;10.35;;;870.50;1254.40;;;;;;5032541;28;20056;-74
2021/07/07 09:51:28;;;;;;;13.73;12.45;;;870.50;1280.00;;;;;;5032780;28;20026;-73
2021/07/07 09:53:54;;;;;;;14.48;13.18;;;870.60;1280.00;;;;;;5034246;28;20477;-74
2021/07/07 09:56:19;;;;;;;14.10;12.63;;;870.80;1254.40;;;;;;5036418;28;20026;-74
2021/07/07 09:58:45;;;;;;;16.42;13.38;;;870.80;1254.40;;;;;;5036034;28;20065;-74
2021/07/07 10:01:11;;;;;;;12.68;11.45;;;871.10;1203.20;;;;;;5018477;28;20080;-74
2021/07/07 10:03:40;;;;;;;12.20;10.80;;;871.20;1203.20;;;;;;5035832;28;20029;-73
2021/07/07 10:06:06;;;;;;;12.75;11.45;;;871.20;1177.60;;;;;;5036197;28;20021;-75
2021/07/07 10:08:33;;;;;;;11.95;10.80;;;871.00;1203.20;;;;;;5036031;28;20401;-75
2021/07/07 10:11:00;;;;;;;12.77;10.80;;;871.00;1203.20;;;;;;5018671;28;20037;-74
2021/07/07 10:13:30;;;;;;;11.85;10.60;;;871.00;1203.20;;;;;;5036037;28;20033;-74
2021/07/07 10:15:56;;;;;;;11.02;9.93;;;871.00;1203.20;;;;;;5036049;28;20021;-74
2021/07/07 10:18:23;;;;;;;10.70;9.65;;;871.00;1203.20;;;;;;5035548;28;20569;-74
2021/07/07 10:20:49;;;;;;;13.85;12.55;;;871.00;1177.60;;;;;;5036259;28;20026;-75
2021/07/07 10:23:16;;;;;;;13.95;12.68;;;871.10;1177.60;;;;;;5036165;28;20025;-74
2021/07/07 10:25:43;;;;;;;16.80;12.60;;;871.10;1177.60;;;;;;5035821;28;20379;-74
2021/07/07 10:28:13;;;;;;;14.02;12.52;;;896.00;1203.20;;;;;;5035738;28;20033;-74
2021/07/07 10:30:56;;;;;;;13.98;10.93;;;896.20;1177.60;;;;;;5035848;28;20021;-73
2021/07/07 10:33:28;;;;;;;12.48;11.20;;;896.40;1152.00;;;;;;5035723;28;20025;-74
2021/07/07 10:36:13;;;;;;;12.35;11.05;;;896.60;1254.40;;;;;;5035495;28;20180;-74
2021/07/07 10:38:39;;;;;;;14.15;10.90;;;896.80;1152.00;;;;;;5035501;28;20111;-74
2021/07/07 10:41:05;;;;;;;13.32;12.10;;;921.60;1152.00;;;;;;5037468;28;20018;-75
2021/07/07 10:43:45;;;;;;;14.70;13.25;;;921.80;1152.00;;;;;;5048660;28;20032;-77
2021/07/07 10:46:34;;;;;;;14.38;13.02;;;922.00;1126.40;;;;;;5045166;28;20089;-74
2021/07/07 10:49:21;;;;;;;14.95;13.38;;;922.00;1152.00;;;;;;5042130;28;20029;-73
2021/07/07 10:51:51;;;;;;;12.88;11.48;;;922.20;1177.60;;;;;;5048401;28;20026;-75
2021/07/07 10:54:27;;;;;;;12.68;11.35;;;922.30;1177.60;;;;;;5049687;28;20010;-75
2021/07/07 10:56:54;;;;;;;11.27;9.57;;;922.30;1075.20;;;;;;5042026;28;20045;-76
2021/07/07 10:59:44;;;;;;;11.85;10.57;;;922.30;1049.60;;;;;;5036644;28;20113;-74
2021/07/07 11:02:22;;;;;;;13.75;11.50;;;922.00;1100.80;;;;;;5036952;28;20076;-74
2021/07/07 11:04:48;;;;;;;15.55;14.13;;;922.20;1100.80;;;;;;5035372;28;20022;-74
2021/07/07 11:07:32;;;;;;;12.40;10.77;;;922.20;1152.00;;;;;;5035488;28;20049;-75
2021/07/07 11:10:21;;;;;;;12.77;11.57;;;922.50;1126.40;;;;;;5035453;28;20140;-75
2021/07/07 11:12:54;;;;;;;12.68;11.48;;;947.20;1075.20;;;;;;5035474;28;20022;-74
2021/07/07 11:15:24;;;;;;;15.73;14.13;;;947.30;1100.80;;;;;;5017329;28;20482;-75
2021/07/07 11:17:50;;;;;;;11.60;10.35;;;947.40;1100.80;;;;;;5034912;28;20116;-74
2021/07/07 11:20:20;;;;;;;12.52;11.40;;;947.40;1024.00;;;;;;5017021;28;20068;-73
2021/07/07 11:23:00;;;;;;;14.90;13.60;;;947.50;1049.60;;;;;;5035045;28;20350;-75
2021/07/07 11:25:28;;;;;;;12.88;11.57;;;947.60;998.40;;;;;;5035015;28;20035;-74
2021/07/07 11:27:54;;;;;;;11.00;9.93;;;947.70;1049.60;;;;;;5034713;28;20018;-75
2021/07/07 11:30:23;;;;;;;13.25;12.05;;;947.70;1024.00;;;;;;5034783;28;20116;-74
2021/07/07 11:32:50;;;;;;;13.70;11.65;;;947.80;1075.20;;;;;;5034536;28;20545;-74
2021/07/07 11:35:30;;;;;;;11.43;10.15;;;947.80;1075.20;;;;;;5017067;28;20041;-74
2021/07/07 11:38:01;;;;;;;16.23;14.82;;;947.90;1024.00;;;;;;5034581;28;20037;-75
2021/07/07 11:40:30;;;;;;;17.35;15.60;;;948.00;998.40;;;;;;5034500;28;20112;-74
2021/07/07 11:43:01;;;;;;;15.20;13.80;;;948.10;1049.60;;;;;;5034541;28;20014;-74
2021/07/07 11:45:37;;;;;;;12.07;11.05;;;972.80;1024.00;;;;;;5034270;28;20022;-75
2021/07/07 11:50:48;;;;;;;12.25;11.15;;;972.80;998.40;;;;;;5034217;28;20175;-74
2021/07/07 11:53:14;;;;;;;12.82;11.63;;;972.90;998.40;;;;;;5034636;28;20029;-74
2021/07/07 11:56:08;;;;;;;10.43;9.27;;;973.10;972.80;;;;;;5034149;28;20028;-74
2021/07/07 11:58:43;;;;;;;15.73;11.35;;;972.90;972.80;;;;;;5034089;28;20485;-75
2021/07/07 12:01:16;;;;;;;10.82;9.93;;;973.10;1024.00;;;;;;5034456;28;20033;-75
2021/07/07 12:03:51;;;;;;;11.98;10.88;;;973.20;998.40;;;;;;5034190;28;20018;-74